createdAt,value
2023-09-20T00:02:15.993Z,89.87
2023-09-20T00:04:45.201Z,89.60
2023-09-20T00:07:13.788Z,89.37
2023-09-20T00:09:42.857Z,89.21
2023-09-20T00:12:11.324Z,89.51
2023-09-20T00:14:39.587Z,89.67
2023-09-20T00:17:07.999Z,90.03
2023-09-20T00:19:37.176Z,90.08
2023-09-20T00:22:05.378Z,90.21
2023-09-20T00:24:36.104Z,90.35
2023-09-20T00:27:04.185Z,90.75
2023-09-20T00:29:32.176Z,90.80
2023-09-20T00:32:00.193Z,90.83
2023-09-20T00:34:29.014Z,90.87
2023-09-20T00:36:56.957Z,91.21
2023-09-20T00:39:25.607Z,91.46
2023-09-20T00:41:53.652Z,91.76
2023-09-20T00:44:21.686Z,91.84
2023-09-20T00:46:49.673Z,91.69
2023-09-20T00:49:17.655Z,91.59
2023-09-20T00:51:49.694Z,91.58
2023-09-20T00:54:18.131Z,91.55
2023-09-20T00:56:46.659Z,91.63
2023-09-20T00:59:14.752Z,91.76
2023-09-20T01:01:43.799Z,91.79
2023-09-20T01:04:12.860Z,91.85
2023-09-20T01:06:43.679Z,91.83
2023-09-20T01:09:12.357Z,92.02
2023-09-20T01:11:40.389Z,91.98
2023-09-20T01:14:08.386Z,92.09
2023-09-20T01:16:36.417Z,92.11
2023-09-20T01:19:07.297Z,92.39
2023-09-20T01:21:49.180Z,92.66
2023-09-20T01:24:19.126Z,92.96
2023-09-20T01:26:50.318Z,92.91
2023-09-20T01:29:18.337Z,93.06
2023-09-20T01:31:46.683Z,93.20
2023-09-20T01:34:14.620Z,93.02
2023-09-20T01:36:43.319Z,92.71
2023-09-20T01:39:11.706Z,92.39
2023-09-20T01:41:39.756Z,92.27
2023-09-20T01:44:09.487Z,92.26
2023-09-20T01:46:39.194Z,92.20
2023-09-20T01:49:08.064Z,92.33
2023-09-20T01:51:36.388Z,92.23
2023-09-20T01:54:06.237Z,92.42
2023-09-20T01:56:34.241Z,92.65
2023-09-20T01:59:02.322Z,92.92
2023-09-20T02:01:30.349Z,92.98
2023-09-20T02:03:58.494Z,93.10
2023-09-20T02:06:26.567Z,93.41
2023-09-20T02:08:55.849Z,93.34
2023-09-20T02:11:24.154Z,93.46
2023-09-20T02:13:52.224Z,93.86
2023-09-20T02:16:20.212Z,94.33
2023-09-20T02:18:50.656Z,94.25
2023-09-20T02:21:18.676Z,94.42
2023-09-20T02:23:47.208Z,94.24
2023-09-20T02:26:15.329Z,94.32
2023-09-20T02:28:43.509Z,94.44
2023-09-20T02:31:11.807Z,94.45
2023-09-20T02:33:41.000Z,94.59
2023-09-20T02:36:09.324Z,94.42
2023-09-20T02:38:39.666Z,94.59
2023-09-20T02:41:07.750Z,94.70
2023-09-20T02:43:35.677Z,94.62
2023-09-20T02:46:07.820Z,94.71
2023-09-20T02:48:37.074Z,94.84
2023-09-20T02:51:05.376Z,94.70
2023-09-20T02:53:35.900Z,94.81
2023-09-20T02:56:06.929Z,94.94
2023-09-20T02:58:34.980Z,95.19
2023-09-20T03:01:04.680Z,95.26
2023-09-20T03:03:33.115Z,95.52
2023-09-20T03:06:10.420Z,95.50
2023-09-20T03:08:44.367Z,95.75
2023-09-20T03:11:21.583Z,95.64
2023-09-20T03:13:49.746Z,95.91
2023-09-20T03:16:21.220Z,96.05
2023-09-20T03:18:52.412Z,96.45
2023-09-20T03:21:21.771Z,96.69
2023-09-20T03:23:49.712Z,96.90
2023-09-20T03:26:18.608Z,97.15
2023-09-20T03:28:48.965Z,97.48
2023-09-20T03:31:21.373Z,97.67
2023-09-20T03:33:50.588Z,97.79
2023-09-20T03:36:18.641Z,97.88
2023-09-20T03:38:46.843Z,98.20
2023-09-20T03:41:14.990Z,98.25
2023-09-20T03:43:43.313Z,98.48
2023-09-20T03:46:12.278Z,98.74
2023-09-20T03:48:40.431Z,98.85
2023-09-20T03:51:20.460Z,98.92
2023-09-20T03:53:51.932Z,99.73
2023-09-20T03:56:20.207Z,99.75
2023-09-20T03:58:48.112Z,99.80
2023-09-20T04:01:16.443Z,99.87
2023-09-20T04:03:44.640Z,99.83
2023-09-20T04:06:12.888Z,100.00
2023-09-20T04:08:41.660Z,100.00
2023-09-20T04:11:09.806Z,100.00
2023-09-20T04:13:37.799Z,100.00
2023-09-20T04:16:05.948Z,100.00
2023-09-20T04:18:34.538Z,100.00
2023-09-20T04:21:02.793Z,100.00
2023-09-20T04:23:30.935Z,100.00
2023-09-20T04:26:00.292Z,100.00
2023-09-20T04:28:28.300Z,100.00
2023-09-20T04:30:56.267Z,100.00
2023-09-20T04:33:26.181Z,100.00
2023-09-20T04:35:54.733Z,100.00
2023-09-20T04:38:22.763Z,100.00
2023-09-20T04:40:50.692Z,100.00
2023-09-20T04:43:18.564Z,100.00
2023-09-20T04:45:46.588Z,100.00
2023-09-20T04:48:15.521Z,100.00
2023-09-20T04:50:43.532Z,100.00
2023-09-20T04:53:11.535Z,100.00
2023-09-20T04:55:39.732Z,100.00
2023-09-20T04:58:08.766Z,100.00
2023-09-20T05:00:39.629Z,100.00
2023-09-20T05:03:07.675Z,100.00
2023-09-20T05:05:35.946Z,100.00
2023-09-20T05:08:04.617Z,100.00
2023-09-20T05:10:33.340Z,100.00
2023-09-20T05:13:01.352Z,100.00
2023-09-20T05:15:29.377Z,100.00
2023-09-20T05:17:58.061Z,100.00
2023-09-20T05:20:27.014Z,100.00
2023-09-20T05:22:55.195Z,100.00
2023-09-20T05:25:27.311Z,100.00
2023-09-20T05:27:56.783Z,100.00
2023-09-20T05:30:24.817Z,100.00
2023-09-20T05:32:54.413Z,100.00
2023-09-20T05:35:22.511Z,100.00
2023-09-20T05:37:50.910Z,100.00
2023-09-20T05:40:21.666Z,100.00
2023-09-20T05:42:52.793Z,100.00
2023-09-20T05:45:25.781Z,100.00
2023-09-20T05:47:53.895Z,100.00
2023-09-20T05:50:25.834Z,100.00
2023-09-20T05:52:54.335Z,100.00
2023-09-20T05:55:25.356Z,100.00
2023-09-20T05:57:53.276Z,100.00
2023-09-20T06:00:24.542Z,100.00
2023-09-20T06:02:52.641Z,100.00
2023-09-20T06:05:26.780Z,100.00
2023-09-20T06:08:00.034Z,100.00
2023-09-20T06:10:28.188Z,100.00
2023-09-20T06:12:56.365Z,100.00
2023-09-20T06:15:25.118Z,100.00
2023-09-20T06:17:54.270Z,100.00
2023-09-20T06:20:22.290Z,100.00
2023-09-20T06:22:55.412Z,100.00
2023-09-20T06:25:24.633Z,100.00
2023-09-20T06:27:56.097Z,100.00
2023-09-20T06:30:25.137Z,100.00
2023-09-20T06:32:53.585Z,100.00
2023-09-20T06:35:23.179Z,100.00
2023-09-20T06:37:51.734Z,100.00
2023-09-20T06:40:36.459Z,100.00
2023-09-20T06:43:04.462Z,100.00
2023-09-20T06:45:32.371Z,100.00
2023-09-20T06:48:00.822Z,100.00
2023-09-20T06:50:29.207Z,100.00
2023-09-20T06:52:57.208Z,100.00
2023-09-20T06:55:27.686Z,100.00
2023-09-20T06:58:08.905Z,100.00
2023-09-20T07:00:44.283Z,100.00
2023-09-20T07:03:13.021Z,100.00
2023-09-20T07:05:41.123Z,100.00
2023-09-20T07:08:10.752Z,100.00
2023-09-20T07:10:44.216Z,100.00
2023-09-20T07:13:12.444Z,100.00
2023-09-20T07:15:41.614Z,100.00
2023-09-20T07:18:14.542Z,100.00
2023-09-20T07:20:45.324Z,100.00
2023-09-20T07:23:17.912Z,100.00
2023-09-20T07:25:45.983Z,100.00
2023-09-20T07:28:13.949Z,100.00
2023-09-20T07:30:47.127Z,100.00
2023-09-20T07:33:26.557Z,100.00
2023-09-20T07:36:43.144Z,100.00
2023-09-20T07:39:24.276Z,100.00
2023-09-20T07:41:55.534Z,100.00
2023-09-20T07:44:26.597Z,100.00
2023-09-20T07:46:59.735Z,100.00
2023-09-20T07:49:28.098Z,100.00
2023-09-20T07:51:57.234Z,100.00
2023-09-20T07:54:25.265Z,100.00
2023-09-20T07:56:55.070Z,100.00
2023-09-20T07:59:26.250Z,100.00
2023-09-20T08:01:55.524Z,100.00
2023-09-20T08:04:24.444Z,100.00
2023-09-20T08:06:52.526Z,100.00
2023-09-20T08:09:20.514Z,100.00
2023-09-20T08:11:49.393Z,100.00
2023-09-20T08:14:17.673Z,100.00
2023-09-20T08:17:01.428Z,100.00
2023-09-20T08:19:33.573Z,100.00
2023-09-20T08:22:01.778Z,100.00
2023-09-20T08:24:49.596Z,100.00
2023-09-20T08:27:35.956Z,100.00
2023-09-20T08:30:22.482Z,100.00
2023-09-20T08:33:09.095Z,100.00
2023-09-20T08:35:55.629Z,100.00
2023-09-20T08:38:42.718Z,100.00
2023-09-20T08:41:29.965Z,100.00
2023-09-20T08:44:17.065Z,100.00
2023-09-20T08:47:05.575Z,100.00
2023-09-20T08:49:52.581Z,100.00
2023-09-20T08:52:41.609Z,100.00
2023-09-20T08:55:30.092Z,100.00
2023-09-20T08:58:18.179Z,100.00
2023-09-20T09:00:49.080Z,100.00
2023-09-20T09:03:18.318Z,99.65
2023-09-20T09:05:46.348Z,99.25
2023-09-20T09:08:16.033Z,99.06
2023-09-20T09:10:44.002Z,98.64
2023-09-20T09:13:11.954Z,98.24
2023-09-20T09:15:40.120Z,97.91
2023-09-20T09:18:16.884Z,97.40
2023-09-20T09:20:50.165Z,96.62
2023-09-20T09:23:34.131Z,96.00
2023-09-20T09:26:02.086Z,94.56
2023-09-20T09:28:32.292Z,95.08
2023-09-20T09:31:00.433Z,94.60
2023-09-20T09:33:29.595Z,94.25
2023-09-20T09:35:57.664Z,93.98
2023-09-20T09:38:25.930Z,93.40
2023-09-20T09:41:04.178Z,92.65
2023-09-20T09:43:32.450Z,92.07
2023-09-20T09:46:11.714Z,91.63
2023-09-20T09:48:40.180Z,90.29
2023-09-20T09:51:09.161Z,90.01
2023-09-20T09:53:41.753Z,89.10
2023-09-20T09:56:09.723Z,85.93
2023-09-20T09:58:37.839Z,86.58
2023-09-20T10:01:08.889Z,85.51
2023-09-20T10:03:39.255Z,84.86
2023-09-20T10:06:18.212Z,83.47
2023-09-20T10:08:47.239Z,81.61
2023-09-20T10:11:16.496Z,81.93
2023-09-20T10:13:46.971Z,80.87
2023-09-20T10:16:15.332Z,79.76
2023-09-20T10:19:00.130Z,78.98
2023-09-20T10:21:34.252Z,76.55
2023-09-20T10:24:10.298Z,77.71
2023-09-20T10:26:42.581Z,76.78
2023-09-20T10:29:28.521Z,75.77
2023-09-20T10:32:17.040Z,74.89
2023-09-20T10:35:25.300Z,73.96
2023-09-20T10:38:10.466Z,72.66
2023-09-20T10:40:51.641Z,73.09
2023-09-20T10:43:27.768Z,72.19
2023-09-20T10:45:56.966Z,72.61
2023-09-20T10:48:30.356Z,72.35
2023-09-20T10:51:01.961Z,70.83
2023-09-20T10:53:49.688Z,71.01
2023-09-20T10:56:55.001Z,69.89
2023-09-20T10:59:24.546Z,69.16
2023-09-20T11:01:58.926Z,70.30
2023-09-20T11:04:27.598Z,69.56
2023-09-20T11:06:57.588Z,69.62
2023-09-20T11:09:27.196Z,69.24
2023-09-20T11:11:55.693Z,69.17
2023-09-20T11:14:26.508Z,69.05
2023-09-20T11:16:54.514Z,68.80
2023-09-20T11:19:22.497Z,68.51
2023-09-20T11:21:51.832Z,68.52
2023-09-20T11:24:22.034Z,68.39
2023-09-20T11:26:50.116Z,68.46
2023-09-20T11:29:19.301Z,68.25
2023-09-20T11:31:47.676Z,68.10
2023-09-20T11:34:15.676Z,67.60
2023-09-20T11:36:45.591Z,67.58
2023-09-20T11:39:25.400Z,67.68
2023-09-20T11:41:53.330Z,67.77
2023-09-20T11:44:23.073Z,67.23
2023-09-20T11:46:58.935Z,66.77
2023-09-20T11:49:30.413Z,65.89
2023-09-20T11:52:01.534Z,66.20
2023-09-20T11:54:37.675Z,65.49
2023-09-20T11:57:06.173Z,64.92
2023-09-20T11:59:43.871Z,65.41
2023-09-20T12:02:14.717Z,65.28
2023-09-20T12:04:42.771Z,65.56
2023-09-20T12:07:11.017Z,65.54
2023-09-20T12:09:39.612Z,65.79
2023-09-20T12:12:08.032Z,65.72
2023-09-20T12:14:37.406Z,65.67
2023-09-20T12:17:06.668Z,65.71
2023-09-20T12:19:35.238Z,65.81
2023-09-20T12:22:06.069Z,65.76
2023-09-20T12:24:34.035Z,65.45
2023-09-20T12:27:02.096Z,65.34
2023-09-20T12:29:30.473Z,65.17
2023-09-20T12:31:58.777Z,64.96
2023-09-20T12:34:27.528Z,64.62
2023-09-20T12:36:56.036Z,64.55
2023-09-20T12:39:24.150Z,64.51
2023-09-20T12:41:52.163Z,64.64
2023-09-20T12:44:20.246Z,64.26
2023-09-20T12:46:49.836Z,63.78
2023-09-20T12:49:17.857Z,63.38
2023-09-20T12:51:45.974Z,63.06
2023-09-20T12:54:13.953Z,62.75
2023-09-20T12:56:43.467Z,62.70
2023-09-20T12:59:15.807Z,62.75
2023-09-20T13:01:43.813Z,62.64
2023-09-20T13:04:13.041Z,62.54
2023-09-20T13:06:41.168Z,61.99
2023-09-20T13:09:09.211Z,61.90
2023-09-20T13:11:37.156Z,61.83
2023-09-20T13:14:05.249Z,61.36
2023-09-20T13:16:33.206Z,61.09
2023-09-20T13:19:01.544Z,61.03
2023-09-20T13:21:29.408Z,61.13
2023-09-20T13:24:01.666Z,61.07
2023-09-20T13:26:30.214Z,60.98
2023-09-20T13:28:58.344Z,60.90
2023-09-20T13:31:26.268Z,60.81
2023-09-20T13:33:54.329Z,60.68
2023-09-20T13:36:23.418Z,60.68
2023-09-20T13:38:52.061Z,60.97
2023-09-20T13:41:20.509Z,61.34
2023-09-20T13:43:48.450Z,61.68
2023-09-20T13:46:17.047Z,61.88
2023-09-20T13:48:46.340Z,62.26
2023-09-20T13:51:19.122Z,62.47
2023-09-20T13:53:48.250Z,62.82
2023-09-20T13:56:16.256Z,63.18
2023-09-20T13:58:45.082Z,63.61
2023-09-20T14:01:13.150Z,64.04
2023-09-20T14:03:41.542Z,64.49
2023-09-20T14:06:10.179Z,64.45
2023-09-20T14:08:38.253Z,64.25
2023-09-20T14:11:09.235Z,64.29
2023-09-20T14:13:37.278Z,64.20
2023-09-20T14:16:05.280Z,64.00
2023-09-20T14:18:33.290Z,63.81
2023-09-20T14:21:04.625Z,63.63
2023-09-20T14:23:32.827Z,62.68
2023-09-20T14:26:00.813Z,62.89
2023-09-20T14:28:28.799Z,62.49
2023-09-20T14:30:56.782Z,62.11
2023-09-20T14:33:24.796Z,61.36
2023-09-20T14:35:58.686Z,61.10
2023-09-20T14:38:28.275Z,60.50
2023-09-20T14:40:57.089Z,60.31
2023-09-20T14:43:25.117Z,60.29
2023-09-20T14:45:53.094Z,59.89
2023-09-20T14:48:21.089Z,59.74
2023-09-20T14:50:49.167Z,59.81
2023-09-20T14:53:20.818Z,60.13
2023-09-20T14:55:49.671Z,60.33
2023-09-20T14:58:20.459Z,60.41
2023-09-20T15:00:51.849Z,60.54
2023-09-20T15:03:19.948Z,60.76
2023-09-20T15:05:48.048Z,60.99
2023-09-20T15:08:16.043Z,61.29
2023-09-20T15:10:45.674Z,61.52
2023-09-20T15:13:13.733Z,61.80
2023-09-20T15:15:44.509Z,61.87
2023-09-20T15:18:12.564Z,61.74
2023-09-20T15:20:45.176Z,61.94
2023-09-20T15:23:13.201Z,62.06
2023-09-20T15:25:42.200Z,62.22
2023-09-20T15:28:10.781Z,62.12
2023-09-20T15:30:42.464Z,62.23
2023-09-20T15:33:11.588Z,62.14
2023-09-20T15:35:39.639Z,62.29
2023-09-20T15:38:10.393Z,62.34
2023-09-20T15:40:38.421Z,62.39
2023-09-20T15:43:08.840Z,62.32
2023-09-20T15:45:36.890Z,62.33
2023-09-20T15:48:05.164Z,62.39
2023-09-20T15:50:36.230Z,62.42
2023-09-20T15:53:04.569Z,62.55
2023-09-20T15:55:32.629Z,62.69
2023-09-20T15:58:00.813Z,62.61
2023-09-20T16:00:28.760Z,62.75
2023-09-20T16:02:57.487Z,62.53
2023-09-20T16:05:25.565Z,62.63
2023-09-20T16:07:53.619Z,62.66
2023-09-20T16:10:22.224Z,62.65
2023-09-20T16:12:50.300Z,62.61
2023-09-20T16:15:19.095Z,62.46
2023-09-20T16:17:48.148Z,62.44
2023-09-20T16:20:19.486Z,62.36
2023-09-20T16:22:48.877Z,62.17
2023-09-20T16:25:17.007Z,62.11
2023-09-20T16:27:47.074Z,62.18
2023-09-20T16:30:16.916Z,62.40
2023-09-20T16:32:46.316Z,62.54
2023-09-20T16:35:16.529Z,62.67
2023-09-20T16:37:45.597Z,63.03
2023-09-20T16:40:14.844Z,63.26
2023-09-20T16:42:46.126Z,63.36
2023-09-20T16:45:15.620Z,63.60
2023-09-20T16:47:44.885Z,63.75
2023-09-20T16:50:13.652Z,63.89
2023-09-20T16:52:42.393Z,64.14
2023-09-20T16:55:12.188Z,64.60
2023-09-20T16:57:40.911Z,64.86
2023-09-20T17:00:13.765Z,65.06
2023-09-20T17:02:42.205Z,65.30
2023-09-20T17:05:11.304Z,65.52
2023-09-20T17:07:39.390Z,65.58
2023-09-20T17:10:08.265Z,65.74
2023-09-20T17:12:36.637Z,65.90
2023-09-20T17:15:06.003Z,66.03
2023-09-20T17:17:34.169Z,66.10
2023-09-20T17:20:03.949Z,66.19
2023-09-20T17:22:32.996Z,66.26
2023-09-20T17:25:01.096Z,66.27
2023-09-20T17:27:31.049Z,66.32
2023-09-20T17:29:59.717Z,66.29
2023-09-20T17:32:27.864Z,66.21
2023-09-20T17:35:01.827Z,66.22
2023-09-20T17:37:30.513Z,66.17
2023-09-20T17:39:58.475Z,66.13
2023-09-20T17:42:27.747Z,66.15
2023-09-20T17:44:58.627Z,66.21
2023-09-20T17:47:26.670Z,66.16
2023-09-20T17:49:55.097Z,66.31
2023-09-20T17:52:30.247Z,66.38
2023-09-20T17:54:59.625Z,66.36
2023-09-20T17:59:56.095Z,66.86
2023-09-20T18:02:26.674Z,66.88
2023-09-20T18:04:54.893Z,66.98
2023-09-20T18:07:25.432Z,67.14
2023-09-20T18:09:53.506Z,67.16
2023-09-20T18:12:21.427Z,67.25
2023-09-20T18:14:51.185Z,67.48
2023-09-20T18:17:25.013Z,67.79
2023-09-20T18:19:58.650Z,68.20
2023-09-20T18:22:26.704Z,68.46
2023-09-20T18:24:56.544Z,68.54
2023-09-20T18:27:24.747Z,68.49
2023-09-20T18:29:54.778Z,68.40
2023-09-20T18:32:23.406Z,68.33
2023-09-20T18:34:51.865Z,68.29
2023-09-20T18:37:20.526Z,68.24
2023-09-20T18:39:48.504Z,68.09
2023-09-20T18:42:17.132Z,68.49
2023-09-20T18:44:47.858Z,69.08
2023-09-20T18:47:16.055Z,69.68
2023-09-20T18:49:47.406Z,69.90
2023-09-20T18:52:16.663Z,70.16
2023-09-20T18:54:47.536Z,70.49
2023-09-20T18:57:15.522Z,70.74
2023-09-20T18:59:46.317Z,70.57
2023-09-20T19:02:14.308Z,70.46
2023-09-20T19:04:43.606Z,70.77
2023-09-20T19:07:13.836Z,71.05
2023-09-20T19:09:42.005Z,71.09
2023-09-20T19:12:13.545Z,71.54
2023-09-20T19:14:43.165Z,72.14
2023-09-20T19:17:11.186Z,72.41
2023-09-20T19:19:40.826Z,73.04
2023-09-20T19:22:08.931Z,73.70
2023-09-20T19:24:39.728Z,74.27
2023-09-20T19:27:07.760Z,74.67
2023-09-20T19:29:37.076Z,74.98
2023-09-20T19:32:05.316Z,75.12
2023-09-20T19:34:35.602Z,75.18
2023-09-20T19:37:03.613Z,75.67
2023-09-20T19:39:31.593Z,75.91
2023-09-20T19:41:59.619Z,76.31
2023-09-20T19:44:33.225Z,76.69
2023-09-20T19:47:01.308Z,77.15
2023-09-20T19:49:31.772Z,77.59
2023-09-20T19:51:59.746Z,77.97
2023-09-20T19:54:27.897Z,78.43
2023-09-20T19:56:55.835Z,78.76
2023-09-20T19:59:23.929Z,79.23
2023-09-20T20:01:53.737Z,79.42
2023-09-20T20:04:21.864Z,79.61
2023-09-20T20:06:50.482Z,79.77
2023-09-20T20:09:18.597Z,79.93
2023-09-20T20:11:47.664Z,80.09
2023-09-20T20:14:15.663Z,80.52
2023-09-20T20:16:43.766Z,80.77
2023-09-20T20:19:12.155Z,81.01
2023-09-20T20:21:40.172Z,81.29
2023-09-20T20:24:09.883Z,81.50
2023-09-20T20:26:38.191Z,81.76
2023-09-20T20:29:15.461Z,82.01
2023-09-20T20:31:45.248Z,82.24
2023-09-20T20:34:13.237Z,82.64
2023-09-20T20:36:41.309Z,82.70
2023-09-20T20:39:18.452Z,82.90
2023-09-20T20:41:50.284Z,83.14
2023-09-20T20:44:18.631Z,83.40
2023-09-20T20:46:47.039Z,83.59
2023-09-20T20:49:16.430Z,83.96
2023-09-20T20:51:46.221Z,84.52
2023-09-20T20:54:14.279Z,84.88
2023-09-20T20:56:42.239Z,84.72
2023-09-20T20:59:17.242Z,84.64
2023-09-20T21:01:45.289Z,84.77
2023-09-20T21:04:13.285Z,84.95
2023-09-20T21:06:41.388Z,85.20
2023-09-20T21:09:09.432Z,85.41
2023-09-20T21:11:37.591Z,85.62
2023-09-20T21:14:10.779Z,85.79
2023-09-20T21:16:38.863Z,85.96
2023-09-20T21:19:06.918Z,86.10
2023-09-20T21:21:40.637Z,86.35
2023-09-20T21:24:11.633Z,86.63
2023-09-20T21:26:39.812Z,86.66
2023-09-20T21:29:09.073Z,86.73
2023-09-20T21:31:42.169Z,86.81
2023-09-20T21:34:10.621Z,86.83
2023-09-20T21:36:38.614Z,86.95
2023-09-20T21:39:06.920Z,87.23
2023-09-20T21:41:35.298Z,87.32
2023-09-20T21:44:03.285Z,87.52
2023-09-20T21:46:31.281Z,87.52
2023-09-20T21:48:59.335Z,87.63
2023-09-20T21:51:27.274Z,87.74
2023-09-20T21:53:55.228Z,87.82
2023-09-20T21:56:23.158Z,87.83
2023-09-20T21:58:51.074Z,87.69
2023-09-20T22:01:19.010Z,87.58
2023-09-20T22:03:47.073Z,87.61
2023-09-20T22:06:15.650Z,87.65
2023-09-20T22:08:44.267Z,87.77
2023-09-20T22:11:15.168Z,87.99
2023-09-20T22:13:43.687Z,88.30
2023-09-20T22:16:11.779Z,88.61
2023-09-20T22:18:41.698Z,88.83
2023-09-20T22:21:14.509Z,89.02
2023-09-20T22:23:42.704Z,89.13
2023-09-20T22:26:13.548Z,89.30
2023-09-20T22:28:41.922Z,89.38
2023-09-20T22:31:19.460Z,89.58
2023-09-20T22:33:47.719Z,89.95
2023-09-20T22:36:16.237Z,89.64
2023-09-20T22:38:46.555Z,89.63
2023-09-20T22:41:17.831Z,89.64
2023-09-20T22:43:47.467Z,89.74
2023-09-20T22:46:17.868Z,89.81
2023-09-20T22:48:46.420Z,89.87
2023-09-20T22:51:14.766Z,90.10
2023-09-20T22:53:45.967Z,90.12
2023-09-20T22:56:14.703Z,90.15
2023-09-20T22:58:43.515Z,90.42
2023-09-20T23:01:12.048Z,90.47
2023-09-20T23:03:41.229Z,90.52
2023-09-20T23:06:09.342Z,90.57
2023-09-20T23:08:38.037Z,91.00
2023-09-20T23:11:11.768Z,91.45
2023-09-20T23:13:41.418Z,91.44
2023-09-20T23:16:18.107Z,91.68
2023-09-20T23:18:47.960Z,91.94
2023-09-20T23:21:18.638Z,92.13
2023-09-20T23:23:50.143Z,92.34
2023-09-20T23:26:18.854Z,92.66
2023-09-20T23:28:46.943Z,92.79
2023-09-20T23:31:18.297Z,93.03
2023-09-20T23:33:48.545Z,93.27
2023-09-20T23:36:17.567Z,93.42
2023-09-20T23:38:46.420Z,93.58
2023-09-20T23:41:17.225Z,93.80
2023-09-20T23:43:49.554Z,93.91
2023-09-20T23:46:23.183Z,94.09
2023-09-20T23:48:52.743Z,94.04
2023-09-20T23:51:21.746Z,94.24
2023-09-20T23:53:51.027Z,94.35
2023-09-20T23:56:19.709Z,94.40
2023-09-20T23:58:47.960Z,94.46
